Sunnyburn, Pennsylvania
Current Conditions -  °F | °C
As of 5:53 PM on Wednesday 22 Oct 2014 (Local Time) from KLNS Reporting Station
Overcast Overcast  
Wind Chill: 54°   Ceiling: 2500
Heat Index: 54°   Visibility: 10mi
Dew Point: 45°   Wind: 18mph
Humidity: 72%   Direction: 340°NNW
Pressure: 29.92"   Gusts: 28mph
Location:  39.8258°N, 76.3995°W
Report Text: KLNS 222153Z 34016G24KT 10SM OVC025 12/07 A2992 RMK AO2 SLP132 T01220072
Loading
Personal Weather Stations






























Interactive Weather Map
Tropical Storm Tracking
New forecast layout! Learn more

10-Day Weather Forecast

Advertisements
Track Severe Weather on mobile